Terminal Aerodrome Forecast
Issued by NWS

Home | Current Version | Previous Version | Text Only | Print | Product List | Glossary On
Versions: 1 2 3 4 5 6 7 8 9 10 11 12 13 14 15 16
000
FTUS45 KTFX 211622 AAA
TAFBZN
TAF AMD
KBZN 211622Z 2116/2212 VRB06KT P6SM SCT080
      TEMPO 2117/2120 23015KT
     FM212100 25015G22KT P6SM SCT100
     FM220300 23011KT P6SM BKN090=

USA.gov is the U.S. government's official web portal to all federal, state and local government web resources and services.